createdAt,value
2023-12-02T00:01:52.602Z,1.67
2023-12-02T00:04:20.674Z,1.53
2023-12-02T00:06:48.076Z,1.67
2023-12-02T00:09:15.870Z,1.60
2023-12-02T00:11:43.525Z,1.50
2023-12-02T00:14:10.862Z,1.37
2023-12-02T00:16:38.211Z,1.20
2023-12-02T00:19:05.652Z,1.30
2023-12-02T00:21:33.272Z,1.30
2023-12-02T00:24:00.712Z,1.43
2023-12-02T00:26:28.078Z,1.83
2023-12-02T00:28:55.458Z,1.37
2023-12-02T00:31:22.860Z,1.53
2023-12-02T00:33:50.564Z,1.40
2023-12-02T00:36:18.030Z,1.67
2023-12-02T00:38:45.728Z,1.40
2023-12-02T00:41:13.129Z,1.47
2023-12-02T00:43:40.517Z,1.37
2023-12-02T00:46:08.476Z,1.57
2023-12-02T00:48:37.146Z,1.40
2023-12-02T00:51:04.961Z,1.20
2023-12-02T00:53:32.382Z,1.60
2023-12-02T00:55:59.708Z,1.27
2023-12-02T00:58:35.493Z,1.60
2023-12-02T01:01:06.925Z,1.47
2023-12-02T01:03:34.476Z,1.40
2023-12-02T01:06:02.039Z,1.93
2023-12-02T01:08:29.483Z,1.47
2023-12-02T01:10:57.031Z,1.60
2023-12-02T01:13:24.381Z,1.20
2023-12-02T01:15:51.730Z,1.17
2023-12-02T01:18:19.291Z,1.33
2023-12-02T01:20:47.221Z,1.30
2023-12-02T01:23:14.898Z,1.53
2023-12-02T01:25:42.278Z,1.47
2023-12-02T01:28:09.726Z,1.07
2023-12-02T01:30:37.160Z,1.30
2023-12-02T01:33:04.597Z,1.37
2023-12-02T01:35:32.080Z,1.27
2023-12-02T01:38:13.260Z,1.30
2023-12-02T01:40:40.713Z,1.30
2023-12-02T01:43:08.056Z,1.50
2023-12-02T01:45:35.580Z,1.33
2023-12-02T01:48:03.647Z,1.17
2023-12-02T01:50:31.173Z,1.27
2023-12-02T01:52:58.656Z,1.20
2023-12-02T01:55:26.283Z,1.37
2023-12-02T01:57:53.784Z,1.70
2023-12-02T02:00:21.318Z,1.63
2023-12-02T02:02:49.179Z,1.33
2023-12-02T02:05:16.925Z,1.10
2023-12-02T02:07:44.430Z,1.50
2023-12-02T02:10:12.092Z,1.20
2023-12-02T02:12:39.599Z,1.00
2023-12-02T02:15:07.877Z,1.30
2023-12-02T02:17:35.532Z,1.20
2023-12-02T02:20:03.016Z,1.00
2023-12-02T02:22:30.460Z,1.20
2023-12-02T02:24:58.029Z,1.30
2023-12-02T02:27:25.395Z,1.30
2023-12-02T02:29:52.761Z,1.27
2023-12-02T02:32:20.099Z,1.10
2023-12-02T02:34:48.326Z,1.20
2023-12-02T02:37:15.920Z,1.20
2023-12-02T02:39:43.310Z,0.90
2023-12-02T02:42:10.768Z,1.00
2023-12-02T02:44:38.706Z,1.20
2023-12-02T02:47:06.299Z,1.23
2023-12-02T02:49:33.748Z,1.17
2023-12-02T02:52:01.113Z,1.00
2023-12-02T02:54:28.671Z,0.90
2023-12-02T02:56:56.127Z,1.07
2023-12-02T02:59:23.665Z,1.07
2023-12-02T03:01:51.055Z,1.00
2023-12-02T03:04:18.519Z,0.93
2023-12-02T03:06:46.125Z,1.00
2023-12-02T03:09:14.166Z,1.20
2023-12-02T03:11:41.800Z,1.00
2023-12-02T03:14:09.315Z,0.80
2023-12-02T03:16:36.842Z,0.80
2023-12-02T03:19:04.871Z,1.00
2023-12-02T03:21:32.659Z,1.00
2023-12-02T03:24:00.330Z,1.00
2023-12-02T03:26:27.820Z,1.20
2023-12-02T03:28:55.296Z,1.17
2023-12-02T03:31:22.946Z,1.47
2023-12-02T03:33:50.470Z,1.10
2023-12-02T03:36:17.850Z,0.93
2023-12-02T03:38:45.520Z,1.10
2023-12-02T03:41:12.894Z,0.80
2023-12-02T03:43:51.952Z,0.97
2023-12-02T03:46:28.648Z,1.60
2023-12-02T03:48:56.987Z,1.70
2023-12-02T03:51:31.705Z,1.57
2023-12-02T03:53:59.039Z,1.20
2023-12-02T03:56:26.474Z,1.40
2023-12-02T03:58:54.039Z,1.27
2023-12-02T04:01:21.730Z,1.13
2023-12-02T04:03:49.513Z,1.17
2023-12-02T04:06:17.116Z,1.07
2023-12-02T04:08:44.450Z,1.10
2023-12-02T04:11:11.940Z,1.10
2023-12-02T04:13:39.262Z,1.10
2023-12-02T04:16:07.183Z,1.17
2023-12-02T04:18:34.802Z,1.30
2023-12-02T04:21:02.463Z,1.10
2023-12-02T04:23:29.847Z,1.47
2023-12-02T04:25:57.494Z,2.00
2023-12-02T04:28:24.987Z,2.03
2023-12-02T04:30:52.290Z,2.13
2023-12-02T04:33:19.795Z,2.40
2023-12-02T04:35:47.493Z,2.30
2023-12-02T04:38:14.893Z,2.20
2023-12-02T04:40:42.301Z,1.77
2023-12-02T04:43:09.893Z,1.40
2023-12-02T04:45:37.229Z,1.50
2023-12-02T04:48:04.758Z,1.50
2023-12-02T04:50:32.170Z,1.90
2023-12-02T04:52:59.523Z,2.20
2023-12-02T04:55:27.120Z,2.13
2023-12-02T04:57:54.618Z,2.80
2023-12-02T05:00:22.345Z,2.67
2023-12-02T05:02:49.839Z,2.20
2023-12-02T05:05:17.348Z,2.63
2023-12-02T05:07:45.512Z,2.23
2023-12-02T05:10:13.113Z,2.73
2023-12-02T05:12:40.632Z,2.33
2023-12-02T05:15:08.726Z,2.23
2023-12-02T05:17:36.610Z,2.07
2023-12-02T05:20:05.029Z,2.40
2023-12-02T05:22:32.602Z,2.33
2023-12-02T05:25:00.158Z,2.30
2023-12-02T05:27:27.581Z,2.27
2023-12-02T05:29:55.017Z,2.47
2023-12-02T05:32:22.554Z,2.00
2023-12-02T05:34:49.995Z,2.47
2023-12-02T05:37:17.519Z,1.57
2023-12-02T05:39:45.158Z,2.37
2023-12-02T05:42:12.572Z,2.00
2023-12-02T05:44:42.652Z,2.17
2023-12-02T05:47:10.288Z,1.87
2023-12-02T05:49:37.689Z,2.73
2023-12-02T05:52:05.516Z,1.30
2023-12-02T05:54:33.297Z,1.20
2023-12-02T05:57:00.969Z,1.20
2023-12-02T05:59:28.485Z,1.10
2023-12-02T06:01:56.089Z,1.10
2023-12-02T06:04:23.614Z,0.90
2023-12-02T06:06:51.049Z,1.00
2023-12-02T06:09:18.774Z,1.00
2023-12-02T06:11:46.245Z,1.10
2023-12-02T06:14:13.604Z,1.50
2023-12-02T06:16:41.045Z,1.90
2023-12-02T06:19:09.252Z,1.70
2023-12-02T06:21:36.790Z,3.40
2023-12-02T06:24:04.861Z,3.17
2023-12-02T06:26:32.365Z,3.13
2023-12-02T06:28:59.724Z,2.67
2023-12-02T06:31:27.068Z,2.70
2023-12-02T06:33:54.646Z,2.53
2023-12-02T06:36:22.058Z,3.10
2023-12-02T06:38:49.446Z,3.17
2023-12-02T06:41:16.944Z,4.30
2023-12-02T06:43:44.327Z,3.00
2023-12-02T06:46:21.913Z,2.20
2023-12-02T06:48:52.830Z,2.57
2023-12-02T06:51:20.487Z,2.37
2023-12-02T06:53:47.890Z,2.50
2023-12-02T06:56:21.002Z,3.63
2023-12-02T06:58:49.505Z,2.57
2023-12-02T07:01:28.212Z,2.60
2023-12-02T07:03:59.730Z,2.70
2023-12-02T07:06:28.792Z,2.80
2023-12-02T07:08:56.691Z,3.00
2023-12-02T07:11:24.228Z,2.90
2023-12-02T07:13:52.069Z,1.87
2023-12-02T07:16:19.532Z,2.20
2023-12-02T07:18:48.639Z,1.90
2023-12-02T07:21:16.282Z,2.10
2023-12-02T07:23:43.683Z,2.63
2023-12-02T07:26:11.863Z,2.20
2023-12-02T07:28:39.366Z,2.00
2023-12-02T07:31:07.560Z,1.80
2023-12-02T07:33:35.178Z,2.17
2023-12-02T07:36:02.768Z,2.27
2023-12-02T07:38:30.207Z,2.30
2023-12-02T07:40:57.649Z,2.30
2023-12-02T07:43:25.369Z,1.80
2023-12-02T07:45:52.810Z,1.60
2023-12-02T07:48:22.730Z,1.40
2023-12-02T07:50:51.193Z,1.50
2023-12-02T07:53:18.772Z,1.43
2023-12-02T07:55:47.278Z,1.50
2023-12-02T07:58:14.809Z,1.50
2023-12-02T08:00:42.221Z,1.80
2023-12-02T08:03:09.784Z,1.50
2023-12-02T08:08:30.543Z,1.50
2023-12-02T08:10:58.141Z,1.37
2023-12-02T08:13:25.572Z,1.30
2023-12-02T08:15:53.022Z,1.40
2023-12-02T08:18:20.520Z,1.40
2023-12-02T08:20:48.290Z,1.83
2023-12-02T08:23:21.838Z,1.47
2023-12-02T08:25:49.307Z,1.00
2023-12-02T08:28:16.678Z,1.10
2023-12-02T08:30:46.798Z,1.30
2023-12-02T08:33:14.891Z,1.07
2023-12-02T08:35:42.784Z,1.20
2023-12-02T08:38:10.324Z,1.10
2023-12-02T08:40:37.823Z,1.40
2023-12-02T08:43:05.905Z,1.33
2023-12-02T08:45:36.039Z,1.10
2023-12-02T08:48:03.726Z,2.10
2023-12-02T08:50:36.128Z,1.13
2023-12-02T08:53:04.915Z,1.10
2023-12-02T08:55:33.021Z,0.80
2023-12-02T08:58:00.531Z,3.00
2023-12-02T09:00:27.972Z,1.20
2023-12-02T09:02:55.425Z,1.50
2023-12-02T09:05:22.904Z,1.20
2023-12-02T09:07:50.336Z,0.90
2023-12-02T09:10:17.998Z,0.97
2023-12-02T09:12:45.708Z,7.97
2023-12-02T09:15:19.058Z,5.50
2023-12-02T09:18:09.463Z,2.33
2023-12-02T09:20:41.916Z,3.50
2023-12-02T09:23:11.522Z,1.33
2023-12-02T09:25:41.145Z,1.30
2023-12-02T09:28:08.539Z,1.20
2023-12-02T09:30:38.847Z,1.17
2023-12-02T09:33:07.218Z,0.80
2023-12-02T09:35:36.285Z,0.90
2023-12-02T09:38:05.853Z,0.87
2023-12-02T09:41:02.115Z,1.10
2023-12-02T09:43:57.987Z,1.10
2023-12-02T09:46:52.632Z,1.07
2023-12-02T09:49:53.956Z,1.30
2023-12-02T09:53:04.943Z,0.83
2023-12-02T09:56:00.047Z,1.60
2023-12-02T09:58:46.917Z,1.00
2023-12-02T10:01:50.032Z,1.53
2023-12-02T10:04:37.664Z,1.10
2023-12-02T10:08:03.507Z,1.10
2023-12-02T10:10:59.484Z,1.00
2023-12-02T10:14:10.001Z,1.33
2023-12-02T10:16:42.658Z,1.20
2023-12-02T10:19:39.105Z,1.17
2023-12-02T10:22:11.761Z,1.03
2023-12-02T10:25:34.517Z,1.10
2023-12-02T10:29:03.019Z,1.17
2023-12-02T10:31:35.773Z,1.00
2023-12-02T10:34:38.157Z,1.13
2023-12-02T10:37:15.283Z,1.30
2023-12-02T10:39:54.022Z,0.93
2023-12-02T10:42:27.201Z,0.90
2023-12-02T10:45:05.550Z,1.10
2023-12-02T10:47:33.965Z,2.73
2023-12-02T10:50:03.162Z,1.77
2023-12-02T10:55:04.897Z,1.30
2023-12-02T10:57:35.125Z,2.00
2023-12-02T11:00:08.898Z,3.40
2023-12-02T11:02:52.388Z,1.67
2023-12-02T11:05:31.166Z,1.60
2023-12-02T11:08:14.044Z,0.97
2023-12-02T11:10:52.762Z,1.10
2023-12-02T11:13:24.691Z,1.00
2023-12-02T11:16:23.412Z,1.10
2023-12-02T11:19:12.841Z,1.03
2023-12-02T11:21:55.221Z,1.10
2023-12-02T11:25:07.662Z,1.00
2023-12-02T11:27:53.272Z,1.30
2023-12-02T11:31:13.765Z,1.10
2023-12-02T11:34:13.413Z,1.03
2023-12-02T11:37:17.615Z,2.40
2023-12-02T11:40:14.300Z,1.17
2023-12-02T11:42:57.378Z,2.57
2023-12-02T11:45:36.773Z,1.20
2023-12-02T11:48:18.295Z,2.40
2023-12-02T11:51:04.545Z,1.07
2023-12-02T11:54:07.673Z,1.10
2023-12-02T11:56:36.006Z,1.13
2023-12-02T11:59:16.466Z,1.00
2023-12-02T12:02:18.842Z,1.10
2023-12-02T12:05:28.675Z,1.40
2023-12-02T12:08:20.692Z,1.20
2023-12-02T12:10:59.820Z,2.10
2023-12-02T12:13:30.475Z,3.00
2023-12-02T12:15:59.621Z,1.77
2023-12-02T12:18:27.174Z,3.80
2023-12-02T12:20:55.630Z,1.17
2023-12-02T12:23:26.496Z,1.67
2023-12-02T12:25:53.922Z,1.20
2023-12-02T12:28:21.640Z,1.10
2023-12-02T12:30:50.395Z,1.20
2023-12-02T12:33:21.606Z,1.40
2023-12-02T12:35:49.561Z,1.23
2023-12-02T12:38:17.425Z,1.50
2023-12-02T12:40:46.530Z,1.67
2023-12-02T12:43:15.316Z,1.27
2023-12-02T12:45:43.428Z,1.30
2023-12-02T12:48:12.953Z,1.80
2023-12-02T12:50:44.380Z,1.57
2023-12-02T12:53:13.932Z,1.10
2023-12-02T12:55:48.488Z,1.47
2023-12-02T12:58:18.748Z,1.57
2023-12-02T13:00:49.207Z,1.17
2023-12-02T13:03:37.958Z,1.47
2023-12-02T13:06:15.106Z,1.20
2023-12-02T13:09:06.461Z,1.67
2023-12-02T13:11:56.808Z,1.40
2023-12-02T13:14:41.419Z,1.40
2023-12-02T13:17:12.597Z,1.50
2023-12-02T13:19:45.145Z,1.10
2023-12-02T13:22:15.503Z,1.10
2023-12-02T13:25:12.814Z,1.10
2023-12-02T13:27:59.292Z,1.20
2023-12-02T13:30:27.800Z,1.13
2023-12-02T13:33:05.079Z,1.20
2023-12-02T13:35:41.172Z,0.97
2023-12-02T13:38:33.912Z,1.30
2023-12-02T13:41:52.494Z,1.23
2023-12-02T13:44:24.039Z,1.03
2023-12-02T13:47:05.072Z,1.13
2023-12-02T13:49:44.044Z,1.00
2023-12-02T13:52:43.920Z,1.33
2023-12-02T13:55:48.709Z,1.20
2023-12-02T13:58:23.172Z,1.10
2023-12-02T14:01:25.663Z,1.30
2023-12-02T14:04:35.943Z,1.53
2023-12-02T14:07:24.004Z,1.20
2023-12-02T14:09:59.502Z,1.10
2023-12-02T14:12:39.186Z,1.40
2023-12-02T14:15:20.207Z,1.37
2023-12-02T14:18:11.220Z,1.30
2023-12-02T14:21:03.360Z,1.40
2023-12-02T14:24:05.401Z,1.20
2023-12-02T14:26:40.385Z,1.57
2023-12-02T14:29:29.887Z,1.50
2023-12-02T14:33:01.727Z,1.60
2023-12-02T14:36:11.421Z,1.47
2023-12-02T14:39:01.159Z,1.70
2023-12-02T14:41:49.089Z,1.70
2023-12-02T14:44:29.715Z,1.60
2023-12-02T14:47:04.905Z,2.70
2023-12-02T14:49:39.572Z,5.87
2023-12-02T14:52:07.960Z,8.97
2023-12-02T14:54:39.428Z,10.43
2023-12-02T14:57:17.919Z,7.30
2023-12-02T15:00:07.027Z,3.63
2023-12-02T15:02:50.319Z,10.23
2023-12-02T15:05:20.319Z,7.20
2023-12-02T15:07:56.984Z,4.27
2023-12-02T15:10:33.927Z,2.00
2023-12-02T15:13:08.343Z,1.37
2023-12-02T15:15:36.410Z,1.90
2023-12-02T15:18:07.547Z,1.97
2023-12-02T15:20:36.085Z,1.70
2023-12-02T15:23:18.796Z,2.13
2023-12-02T15:25:52.941Z,1.83
2023-12-02T15:28:23.674Z,2.13
2023-12-02T15:30:54.633Z,1.80
2023-12-02T15:33:40.889Z,6.20
2023-12-02T15:36:10.612Z,3.30
2023-12-02T15:38:38.320Z,4.30
2023-12-02T15:41:06.980Z,4.83
2023-12-02T15:43:34.986Z,3.60
2023-12-02T15:46:02.709Z,3.70
2023-12-02T15:48:30.636Z,2.67
2023-12-02T15:50:59.196Z,4.10
2023-12-02T15:53:28.098Z,2.60
2023-12-02T15:55:58.444Z,2.27
2023-12-02T15:58:28.445Z,2.73
2023-12-02T16:01:03.415Z,2.33
2023-12-02T16:03:32.810Z,1.63
2023-12-02T16:06:02.283Z,1.53
2023-12-02T16:08:30.136Z,2.20
2023-12-02T16:11:07.045Z,2.10
2023-12-02T16:13:42.915Z,2.00
2023-12-02T16:16:15.301Z,1.70
2023-12-02T16:18:45.277Z,1.97
2023-12-02T16:21:19.129Z,3.33
2023-12-02T16:23:49.128Z,2.13
2023-12-02T16:26:18.713Z,3.80
2023-12-02T16:28:47.596Z,3.23
2023-12-02T16:31:24.108Z,3.03
2023-12-02T16:33:53.410Z,2.00
2023-12-02T16:36:21.225Z,1.70
2023-12-02T16:38:52.169Z,1.93
2023-12-02T16:41:19.681Z,2.10
2023-12-02T16:43:47.243Z,2.50
2023-12-02T16:46:14.718Z,2.40
2023-12-02T16:48:49.397Z,2.10
2023-12-02T16:51:17.228Z,2.07
2023-12-02T16:53:44.780Z,2.00
2023-12-02T16:56:20.914Z,2.20
2023-12-02T16:58:49.865Z,2.07
2023-12-02T17:01:35.489Z,2.50
2023-12-02T17:04:03.668Z,4.17
2023-12-02T17:06:31.077Z,3.60
2023-12-02T17:08:58.630Z,3.20
2023-12-02T17:11:26.177Z,3.77
2023-12-02T17:13:59.065Z,3.60
2023-12-02T17:16:57.210Z,4.77
2023-12-02T17:19:26.223Z,3.80
2023-12-02T17:21:59.943Z,2.30
2023-12-02T17:24:34.507Z,2.40
2023-12-02T17:27:03.244Z,1.80
2023-12-02T17:29:34.085Z,2.20
2023-12-02T17:32:02.406Z,1.90
2023-12-02T17:34:31.975Z,2.10
2023-12-02T17:37:00.257Z,2.23
2023-12-02T17:39:27.902Z,2.30
2023-12-02T17:41:55.580Z,2.40
2023-12-02T17:44:22.991Z,2.50
2023-12-02T17:46:51.433Z,2.43
2023-12-02T17:49:19.034Z,2.37
2023-12-02T17:51:46.577Z,4.57
2023-12-02T17:54:14.381Z,2.60
2023-12-02T17:56:41.700Z,2.53
2023-12-02T17:59:09.251Z,2.43
2023-12-02T18:01:36.814Z,4.03
2023-12-02T18:04:04.603Z,3.00
2023-12-02T18:06:32.231Z,2.30
2023-12-02T18:08:59.733Z,2.13
2023-12-02T18:11:27.679Z,2.50
2023-12-02T18:13:55.212Z,3.40
2023-12-02T18:16:22.653Z,3.43
2023-12-02T18:18:50.101Z,2.53
2023-12-02T18:21:17.589Z,3.00
2023-12-02T18:23:44.967Z,2.50
2023-12-02T18:26:12.394Z,2.57
2023-12-02T18:28:39.777Z,2.93
2023-12-02T18:31:07.606Z,2.30
2023-12-02T18:33:35.042Z,2.23
2023-12-02T18:36:02.459Z,2.10
2023-12-02T18:38:30.038Z,2.40
2023-12-02T18:40:57.396Z,2.27
2023-12-02T18:43:24.772Z,2.00
2023-12-02T18:45:52.493Z,1.80
2023-12-02T18:48:19.953Z,1.77
2023-12-02T18:50:47.430Z,2.10
2023-12-02T18:53:14.809Z,1.97
2023-12-02T18:55:42.217Z,2.10
2023-12-02T18:58:09.642Z,2.03
2023-12-02T19:00:37.381Z,1.70
2023-12-02T19:03:05.035Z,2.03
2023-12-02T19:05:32.557Z,2.53
2023-12-02T19:08:00.969Z,2.40
2023-12-02T19:10:28.586Z,1.67
2023-12-02T19:12:55.989Z,1.90
2023-12-02T19:15:23.389Z,1.97
2023-12-02T19:17:50.830Z,2.60
2023-12-02T19:20:18.296Z,2.63
2023-12-02T19:22:45.743Z,3.77
2023-12-02T19:25:13.164Z,3.50
2023-12-02T19:27:40.549Z,2.60
2023-12-02T19:30:08.982Z,2.40
2023-12-02T19:32:36.856Z,1.83
2023-12-02T19:35:04.524Z,1.80
2023-12-02T19:37:32.304Z,1.80
2023-12-02T19:40:01.250Z,1.70
2023-12-02T19:42:28.922Z,1.90
2023-12-02T19:44:56.233Z,1.70
2023-12-02T19:47:23.597Z,1.70
2023-12-02T19:49:51.151Z,1.70
2023-12-02T19:52:18.789Z,1.60
2023-12-02T19:54:46.253Z,1.60
2023-12-02T19:57:13.854Z,1.43
2023-12-02T19:59:41.350Z,1.90
2023-12-02T20:02:08.921Z,2.07
2023-12-02T20:04:36.687Z,1.80
2023-12-02T20:07:04.400Z,1.70
2023-12-02T20:09:32.245Z,1.80
2023-12-02T20:11:59.904Z,1.70
2023-12-02T20:14:27.267Z,1.67
2023-12-02T20:16:54.847Z,1.80
2023-12-02T20:19:22.796Z,1.77
2023-12-02T20:21:50.348Z,2.00
2023-12-02T20:24:17.929Z,1.90
2023-12-02T20:26:45.399Z,1.80
2023-12-02T20:29:13.033Z,1.87
2023-12-02T20:31:40.436Z,1.87
2023-12-02T20:34:08.441Z,2.10
2023-12-02T20:36:36.165Z,1.87
2023-12-02T20:39:06.046Z,1.80
2023-12-02T20:41:35.981Z,1.77
2023-12-02T20:44:03.341Z,2.17
2023-12-02T20:46:30.825Z,1.90
2023-12-02T20:48:58.383Z,1.60
2023-12-02T20:51:26.197Z,1.80
2023-12-02T20:53:53.521Z,1.70
2023-12-02T20:56:20.865Z,1.90
2023-12-02T20:58:48.236Z,1.70
2023-12-02T21:01:15.694Z,1.80
2023-12-02T21:03:43.617Z,2.00
2023-12-02T21:06:11.371Z,2.03
2023-12-02T21:08:38.945Z,1.80
2023-12-02T21:11:06.514Z,2.07
2023-12-02T21:13:33.930Z,2.10
2023-12-02T21:16:01.372Z,2.00
2023-12-02T21:18:29.131Z,2.10
2023-12-02T21:20:56.634Z,1.93
2023-12-02T21:23:24.277Z,1.90
2023-12-02T21:25:51.840Z,2.00
2023-12-02T21:28:19.188Z,1.70
2023-12-02T21:30:47.189Z,1.90
2023-12-02T21:33:19.079Z,2.03
2023-12-02T21:35:55.447Z,1.90
2023-12-02T21:38:45.150Z,2.10
2023-12-02T21:41:17.726Z,2.00
2023-12-02T21:43:48.031Z,1.90
2023-12-02T21:46:26.828Z,1.90
2023-12-02T21:49:15.970Z,1.80
2023-12-02T21:51:45.908Z,2.07
2023-12-02T21:54:20.124Z,1.93
2023-12-02T21:56:51.477Z,1.73
2023-12-02T21:59:21.104Z,1.87
2023-12-02T22:01:53.514Z,2.00
2023-12-02T22:04:23.936Z,2.00
2023-12-02T22:07:02.611Z,1.77
2023-12-02T22:09:39.087Z,1.80
2023-12-02T22:12:36.114Z,1.90
2023-12-02T22:15:15.769Z,1.90
2023-12-02T22:17:44.314Z,1.90
2023-12-02T22:20:20.624Z,2.03
2023-12-02T22:23:15.437Z,2.00
2023-12-02T22:25:45.516Z,2.07
2023-12-02T22:28:16.818Z,1.87
2023-12-02T22:30:50.236Z,2.00
2023-12-02T22:33:21.342Z,1.90
2023-12-02T22:36:04.024Z,2.03
2023-12-02T22:38:37.114Z,1.70
2023-12-02T22:41:09.347Z,1.90
2023-12-02T22:43:45.154Z,1.83
2023-12-02T22:46:13.895Z,1.90
2023-12-02T22:48:45.351Z,1.50
2023-12-02T22:51:25.941Z,2.00
2023-12-02T22:53:55.275Z,2.13
2023-12-02T22:56:31.076Z,1.90
2023-12-02T22:58:58.539Z,1.70
2023-12-02T23:01:34.689Z,1.90
2023-12-02T23:04:31.966Z,2.10
2023-12-02T23:06:59.411Z,1.93
2023-12-02T23:09:29.698Z,1.83
2023-12-02T23:12:05.044Z,2.07
2023-12-02T23:14:47.498Z,2.03
2023-12-02T23:17:26.179Z,1.80
2023-12-02T23:19:54.683Z,1.90
2023-12-02T23:22:22.649Z,2.07
2023-12-02T23:24:50.825Z,2.10
2023-12-02T23:27:48.230Z,1.93
2023-12-02T23:30:18.931Z,2.00
2023-12-02T23:32:47.598Z,1.80
2023-12-02T23:35:38.374Z,1.77
2023-12-02T23:38:06.030Z,2.00
2023-12-02T23:40:44.509Z,1.93
2023-12-02T23:43:34.040Z,1.70
2023-12-02T23:46:01.506Z,2.00
2023-12-02T23:48:29.149Z,1.73
2023-12-02T23:50:56.718Z,1.83
2023-12-02T23:53:24.299Z,2.03
2023-12-02T23:55:53.281Z,1.77
2023-12-02T23:58:20.786Z,1.80
